Gran Canaria Sur, Spain
Current Conditions -  °F | °C
As of 6:30 AM on Monday 22 Dec 2014 (Local Time) from GCLP Reporting Station
Few Clouds Few Clouds  
Wind Chill: 63°   Ceiling: Unl
Heat Index: 63°   Visibility: 6mi
Dew Point: 57°   Wind: 2mph
Humidity: 82%   Direction: NA
Pressure: 30.18"   Gusts: NA
Location:  28°N, 15.6°W
Report Text: GCLP 220630Z VRB02KT 9999 FEW028 17/14 Q1022 NOSIG
Loading
Personal Weather Stations






























Interactive Weather Map New forecast layout! Learn more

10-Day Weather Forecast

Advertisements
Track Severe Weather on mobile